createdAt,value
2017-03-18T00:00:30.188Z,0
2017-03-18T00:01:10.799Z,0
2017-03-18T00:01:51.426Z,0
2017-03-18T00:02:32.000Z,0
2017-03-18T00:03:12.614Z,0
2017-03-18T00:03:53.179Z,0
2017-03-18T00:04:33.775Z,0
2017-03-18T00:05:14.367Z,0
2017-03-18T00:05:54.929Z,0
2017-03-18T00:06:35.518Z,0
2017-03-18T00:07:16.112Z,0
2017-03-18T00:07:56.732Z,0
2017-03-18T00:08:37.294Z,0
2017-03-18T00:09:17.911Z,0
2017-03-18T00:09:58.540Z,0
2017-03-18T00:10:39.092Z,0
2017-03-18T00:11:19.667Z,0
2017-03-18T00:12:00.275Z,0
2017-03-18T00:12:40.871Z,0
2017-03-18T00:13:21.467Z,0
2017-03-18T00:14:02.053Z,0
2017-03-18T00:14:42.626Z,0
2017-03-18T00:15:23.235Z,0
2017-03-18T00:16:03.817Z,0
2017-03-18T00:16:44.393Z,0
2017-03-18T00:17:25.005Z,0
2017-03-18T00:18:05.585Z,0
2017-03-18T00:18:46.187Z,0
2017-03-18T00:19:26.808Z,0
2017-03-18T00:20:07.406Z,0
2017-03-18T00:20:47.996Z,0
2017-03-18T00:21:28.568Z,0
2017-03-18T00:22:09.128Z,0
2017-03-18T00:22:49.694Z,0
2017-03-18T00:23:30.287Z,0
2017-03-18T00:24:10.884Z,0
2017-03-18T00:24:51.487Z,0
2017-03-18T00:25:32.078Z,0
2017-03-18T00:26:12.665Z,0
2017-03-18T00:26:53.267Z,0
2017-03-18T00:27:33.867Z,0
2017-03-18T00:28:14.467Z,0
2017-03-18T00:28:55.065Z,0
2017-03-18T00:29:35.648Z,0
2017-03-18T00:30:16.233Z,0
2017-03-18T00:30:56.807Z,0
2017-03-18T00:31:37.422Z,0
2017-03-18T00:32:17.970Z,0
2017-03-18T00:32:58.564Z,0
2017-03-18T00:33:39.157Z,0
2017-03-18T00:34:19.771Z,0
2017-03-18T00:35:00.376Z,0
2017-03-18T00:35:40.943Z,0
2017-03-18T00:36:21.530Z,0
2017-03-18T00:37:02.123Z,0
2017-03-18T00:37:42.715Z,0
2017-03-18T00:38:23.305Z,0
2017-03-18T00:39:03.891Z,0
2017-03-18T00:39:44.482Z,0
2017-03-18T00:40:25.085Z,0
2017-03-18T00:41:05.670Z,0
2017-03-18T00:41:46.270Z,0
2017-03-18T00:42:26.856Z,0
2017-03-18T00:43:07.481Z,0
2017-03-18T00:43:48.074Z,0
2017-03-18T00:44:28.676Z,0
2017-03-18T00:45:09.266Z,0
2017-03-18T00:45:49.838Z,0
2017-03-18T00:46:30.442Z,0
2017-03-18T00:47:11.012Z,0
2017-03-18T00:47:51.595Z,0
2017-03-18T00:48:32.217Z,0
2017-03-18T00:49:12.769Z,0
2017-03-18T00:49:53.374Z,0
2017-03-18T00:50:34.025Z,0
2017-03-18T00:51:14.621Z,0
2017-03-18T00:51:55.201Z,0
2017-03-18T00:52:35.795Z,0
2017-03-18T00:53:16.363Z,0
2017-03-18T00:53:56.946Z,0
2017-03-18T00:54:37.518Z,0
2017-03-18T00:55:18.090Z,0
2017-03-18T00:55:58.702Z,0
2017-03-18T00:56:39.292Z,0
2017-03-18T00:57:19.838Z,0
2017-03-18T00:58:00.399Z,0
2017-03-18T00:58:41.006Z,0
2017-03-18T00:59:21.605Z,0
2017-03-18T01:00:02.226Z,0
2017-03-18T01:00:42.806Z,0
2017-03-18T01:01:23.439Z,0
2017-03-18T01:02:03.992Z,0
2017-03-18T01:02:44.568Z,0
2017-03-18T01:03:25.164Z,0
2017-03-18T01:04:05.762Z,0
2017-03-18T01:04:46.425Z,0
2017-03-18T01:05:27.080Z,0
2017-03-18T01:06:07.681Z,0
2017-03-18T01:06:48.260Z,0
2017-03-18T01:07:28.822Z,0
2017-03-18T01:08:09.420Z,0
2017-03-18T01:08:49.998Z,0
2017-03-18T01:09:30.626Z,0
2017-03-18T01:10:11.217Z,0
2017-03-18T01:10:51.803Z,0
2017-03-18T01:11:32.444Z,0
2017-03-18T01:12:12.991Z,0
2017-03-18T01:12:53.612Z,0
2017-03-18T01:13:34.213Z,0
2017-03-18T01:14:14.791Z,0
2017-03-18T01:14:55.377Z,0
2017-03-18T01:15:35.949Z,0
2017-03-18T01:16:16.541Z,0
2017-03-18T01:16:57.138Z,0
2017-03-18T01:17:37.741Z,0
2017-03-18T01:18:18.333Z,0
2017-03-18T01:18:58.948Z,0
2017-03-18T01:19:39.577Z,0
2017-03-18T01:20:20.172Z,0
2017-03-18T01:21:00.785Z,0
2017-03-18T01:21:41.369Z,0
2017-03-18T01:22:21.959Z,0
2017-03-18T01:23:02.597Z,0
2017-03-18T01:23:43.321Z,0
2017-03-18T01:24:23.873Z,0
2017-03-18T01:25:04.437Z,0
2017-03-18T01:25:45.014Z,0
2017-03-18T01:26:25.609Z,0
2017-03-18T01:27:06.514Z,0
2017-03-18T01:27:47.443Z,0
2017-03-18T01:28:28.014Z,0
2017-03-18T01:29:08.634Z,0
2017-03-18T01:29:49.202Z,0
2017-03-18T01:30:29.773Z,0
2017-03-18T01:31:10.376Z,0
2017-03-18T01:31:50.964Z,0
2017-03-18T01:32:31.588Z,0
2017-03-18T01:33:12.211Z,0
2017-03-18T01:33:52.882Z,0
2017-03-18T01:34:33.524Z,0
2017-03-18T01:35:14.097Z,0
2017-03-18T01:35:54.754Z,0
2017-03-18T01:36:35.308Z,0
2017-03-18T01:37:15.888Z,0
2017-03-18T01:37:56.520Z,0
2017-03-18T01:38:37.086Z,0
2017-03-18T01:39:17.664Z,0
2017-03-18T01:39:58.247Z,0
2017-03-18T01:40:38.852Z,0
2017-03-18T01:41:19.446Z,0
2017-03-18T01:42:00.072Z,0
2017-03-18T01:42:40.650Z,0
2017-03-18T01:43:21.238Z,0
2017-03-18T01:44:01.822Z,0
2017-03-18T01:44:42.408Z,0
2017-03-18T01:45:22.986Z,0
2017-03-18T01:46:03.577Z,0
2017-03-18T01:46:44.133Z,0
2017-03-18T01:47:24.745Z,0
2017-03-18T01:48:05.334Z,0
2017-03-18T01:48:45.946Z,0
2017-03-18T01:49:26.543Z,0
2017-03-18T01:50:07.136Z,0
2017-03-18T01:50:47.778Z,0
2017-03-18T01:51:28.358Z,0
2017-03-18T01:52:08.943Z,0
2017-03-18T01:52:49.532Z,0
2017-03-18T01:53:30.163Z,0
2017-03-18T01:54:10.778Z,0
2017-03-18T01:54:51.347Z,0
2017-03-18T01:55:32.192Z,0
2017-03-18T01:56:12.793Z,0
2017-03-18T01:56:53.382Z,0
2017-03-18T01:57:33.959Z,0
2017-03-18T01:58:14.583Z,0
2017-03-18T01:58:55.116Z,0
2017-03-18T01:59:35.734Z,0
2017-03-18T02:00:16.303Z,0
2017-03-18T02:00:56.870Z,0
2017-03-18T02:01:37.443Z,0
2017-03-18T02:02:18.033Z,0
2017-03-18T02:02:58.607Z,0
2017-03-18T02:03:39.241Z,0
2017-03-18T02:04:19.851Z,0
2017-03-18T02:05:00.452Z,0
2017-03-18T02:05:41.048Z,0
2017-03-18T02:06:21.658Z,0
2017-03-18T02:07:02.271Z,0
2017-03-18T02:07:42.859Z,0
2017-03-18T02:08:23.445Z,0
2017-03-18T02:09:04.055Z,0
2017-03-18T02:09:44.623Z,0
2017-03-18T02:10:25.234Z,0
2017-03-18T02:11:05.843Z,0
2017-03-18T02:11:46.397Z,0
2017-03-18T02:12:27.038Z,0
2017-03-18T02:13:07.626Z,0
2017-03-18T02:13:48.283Z,0
2017-03-18T02:14:28.838Z,0
2017-03-18T02:15:09.429Z,0
2017-03-18T02:15:50.012Z,0
2017-03-18T02:16:30.587Z,0
2017-03-18T02:17:11.180Z,0
2017-03-18T02:17:51.756Z,0
2017-03-18T02:18:32.337Z,0
2017-03-18T02:19:12.903Z,0
2017-03-18T02:19:53.493Z,0
2017-03-18T02:20:34.102Z,0
2017-03-18T02:21:14.685Z,0
2017-03-18T02:21:55.272Z,0
2017-03-18T02:22:35.901Z,0
2017-03-18T02:23:16.496Z,0
2017-03-18T02:23:57.126Z,0
2017-03-18T02:24:37.700Z,0
2017-03-18T02:25:18.329Z,0
2017-03-18T02:25:58.928Z,0
2017-03-18T02:26:39.487Z,0
2017-03-18T02:27:20.097Z,0
2017-03-18T02:28:00.673Z,0
2017-03-18T02:28:41.291Z,0
2017-03-18T02:29:21.875Z,0
2017-03-18T02:30:02.491Z,0
2017-03-18T02:30:43.063Z,0
2017-03-18T02:31:23.658Z,0
2017-03-18T02:32:04.324Z,0
2017-03-18T02:32:44.872Z,0
2017-03-18T02:33:25.459Z,0
2017-03-18T02:34:06.062Z,0
2017-03-18T02:34:46.650Z,0
2017-03-18T02:35:27.241Z,0
2017-03-18T02:36:07.851Z,0
2017-03-18T02:36:48.611Z,0
2017-03-18T02:37:29.240Z,0
2017-03-18T02:38:09.830Z,0
2017-03-18T02:38:50.395Z,0
2017-03-18T02:39:31.001Z,0
2017-03-18T02:40:11.600Z,0
2017-03-18T02:40:52.167Z,0
2017-03-18T02:41:32.790Z,0
2017-03-18T02:42:13.369Z,0
2017-03-18T02:42:53.944Z,0
2017-03-18T02:43:34.565Z,0
2017-03-18T02:44:15.129Z,0
2017-03-18T02:44:55.752Z,0
2017-03-18T02:45:36.512Z,0
2017-03-18T02:46:17.185Z,0
2017-03-18T02:46:57.746Z,0
2017-03-18T02:47:38.310Z,0
2017-03-18T02:48:18.920Z,0
2017-03-18T02:48:59.509Z,0
2017-03-18T02:49:40.076Z,0
2017-03-18T02:50:20.647Z,0
2017-03-18T02:51:01.261Z,0
2017-03-18T02:51:41.847Z,0
2017-03-18T02:52:22.452Z,0
2017-03-18T02:53:03.034Z,0
2017-03-18T02:53:43.658Z,0
2017-03-18T02:54:24.237Z,0
2017-03-18T02:55:04.802Z,0
2017-03-18T02:55:45.424Z,0
2017-03-18T02:56:25.945Z,0
2017-03-18T02:57:06.537Z,0
2017-03-18T02:57:47.173Z,0
2017-03-18T02:58:27.749Z,0
2017-03-18T02:59:08.334Z,0
2017-03-18T02:59:48.939Z,0
2017-03-18T03:00:29.518Z,0
2017-03-18T03:01:10.097Z,0
2017-03-18T03:01:50.685Z,0
2017-03-18T03:02:31.271Z,0
2017-03-18T03:03:11.843Z,0
2017-03-18T03:03:52.428Z,0
2017-03-18T03:04:33.044Z,0
2017-03-18T03:05:13.584Z,0
2017-03-18T03:05:54.203Z,0
2017-03-18T03:06:34.832Z,0
2017-03-18T03:07:15.420Z,0
2017-03-18T03:07:56.007Z,0
2017-03-18T03:08:36.605Z,0
2017-03-18T03:09:17.194Z,0
2017-03-18T03:09:57.788Z,0
2017-03-18T03:10:38.361Z,0
2017-03-18T03:11:18.963Z,0
2017-03-18T03:11:59.565Z,0
2017-03-18T03:12:40.160Z,0
2017-03-18T03:13:20.756Z,0
2017-03-18T03:14:01.401Z,0
2017-03-18T03:14:41.975Z,0
2017-03-18T03:15:22.568Z,0
2017-03-18T03:16:03.166Z,0
2017-03-18T03:16:43.784Z,0
2017-03-18T03:17:24.380Z,0
2017-03-18T03:18:04.962Z,0
2017-03-18T03:18:45.565Z,0
2017-03-18T03:19:26.154Z,0
2017-03-18T03:20:06.733Z,0
2017-03-18T03:20:47.321Z,0
2017-03-18T03:21:27.879Z,0
2017-03-18T03:22:08.445Z,0
2017-03-18T03:22:49.044Z,0
2017-03-18T03:23:29.633Z,0
2017-03-18T03:24:10.239Z,0
2017-03-18T03:24:50.827Z,0
2017-03-18T03:25:31.407Z,0
2017-03-18T03:26:11.975Z,0
2017-03-18T03:26:52.553Z,0
2017-03-18T03:27:33.134Z,0
2017-03-18T03:28:13.713Z,0
2017-03-18T03:28:54.314Z,0
2017-03-18T03:29:34.912Z,0
2017-03-18T03:30:15.486Z,0
2017-03-18T03:30:56.073Z,0
2017-03-18T03:31:36.645Z,0
2017-03-18T03:32:17.252Z,0
2017-03-18T03:32:57.853Z,0
2017-03-18T03:33:38.464Z,0
2017-03-18T03:34:19.046Z,0
2017-03-18T03:34:59.620Z,0
2017-03-18T03:35:40.207Z,0
2017-03-18T03:36:20.812Z,0
2017-03-18T03:37:01.400Z,0
2017-03-18T03:37:41.974Z,0
2017-03-18T03:38:22.537Z,0
2017-03-18T03:39:03.108Z,0
2017-03-18T03:39:43.700Z,0
2017-03-18T03:40:24.289Z,0
2017-03-18T03:41:04.872Z,0
2017-03-18T03:41:45.507Z,0
2017-03-18T03:42:26.093Z,0
2017-03-18T03:43:06.732Z,0
2017-03-18T03:43:47.284Z,0
2017-03-18T03:44:27.863Z,0
2017-03-18T03:45:08.442Z,0
2017-03-18T03:45:49.235Z,0
2017-03-18T03:46:29.821Z,0
2017-03-18T03:47:10.413Z,0
2017-03-18T03:47:50.990Z,0
2017-03-18T03:48:31.659Z,0
2017-03-18T03:49:12.290Z,0
2017-03-18T03:49:52.909Z,0
2017-03-18T03:50:33.751Z,0
2017-03-18T03:51:14.411Z,0
2017-03-18T03:51:55.212Z,0
2017-03-18T03:52:36.325Z,0
2017-03-18T03:53:17.212Z,0
2017-03-18T03:53:57.782Z,0
2017-03-18T03:54:38.360Z,0
2017-03-18T03:55:18.923Z,0
2017-03-18T03:55:59.530Z,0
2017-03-18T03:56:40.085Z,0
2017-03-18T03:57:20.759Z,0
2017-03-18T03:58:01.783Z,0
2017-03-18T03:58:42.720Z,0
2017-03-18T03:59:23.789Z,0
2017-03-18T04:00:04.669Z,0
2017-03-18T04:00:45.515Z,0
2017-03-18T04:01:26.087Z,0
2017-03-18T04:02:06.888Z,0
2017-03-18T04:02:47.719Z,0
2017-03-18T04:03:28.573Z,0
2017-03-18T04:04:09.244Z,0
2017-03-18T04:04:49.839Z,0
2017-03-18T04:05:30.751Z,0
2017-03-18T04:06:11.506Z,0
2017-03-18T04:06:52.080Z,0
2017-03-18T04:07:32.658Z,0
2017-03-18T04:08:13.253Z,0
2017-03-18T04:08:53.883Z,0
2017-03-18T04:09:34.472Z,0
2017-03-18T04:10:15.049Z,0
2017-03-18T04:10:55.632Z,0
2017-03-18T04:11:36.207Z,0
2017-03-18T04:12:16.787Z,0
2017-03-18T04:12:57.377Z,0
2017-03-18T04:13:37.961Z,0
2017-03-18T04:14:18.535Z,0
2017-03-18T04:14:59.114Z,0
2017-03-18T04:15:39.696Z,0
2017-03-18T04:16:20.276Z,0
2017-03-18T04:17:00.844Z,0
2017-03-18T04:17:41.417Z,0
2017-03-18T04:18:22.007Z,0
2017-03-18T04:19:02.571Z,0
2017-03-18T04:19:43.169Z,0
2017-03-18T04:20:23.755Z,0
2017-03-18T04:21:04.339Z,0
2017-03-18T04:21:44.916Z,0
2017-03-18T04:22:25.503Z,0
2017-03-18T04:23:06.067Z,0
2017-03-18T04:23:46.640Z,0
2017-03-18T04:24:27.246Z,0
2017-03-18T04:25:07.830Z,0
2017-03-18T04:25:48.407Z,0
2017-03-18T04:26:28.980Z,0
2017-03-18T04:27:09.561Z,0
2017-03-18T04:27:50.123Z,0
2017-03-18T04:28:30.692Z,0
2017-03-18T04:29:11.262Z,0
2017-03-18T04:29:51.833Z,0
2017-03-18T04:30:32.402Z,0
2017-03-18T04:31:12.963Z,0
2017-03-18T04:31:53.531Z,0
2017-03-18T04:32:34.119Z,0
2017-03-18T04:33:14.708Z,0
2017-03-18T04:33:55.277Z,0
2017-03-18T04:34:35.848Z,0
2017-03-18T04:35:16.417Z,0
2017-03-18T04:35:57.024Z,0
2017-03-18T04:36:37.597Z,0
2017-03-18T04:37:18.260Z,0
2017-03-18T04:37:58.830Z,0
2017-03-18T04:38:39.430Z,0
2017-03-18T04:39:20.040Z,0
2017-03-18T04:40:00.601Z,0
2017-03-18T04:40:41.179Z,0
2017-03-18T04:41:21.764Z,0
2017-03-18T04:42:02.351Z,0
2017-03-18T04:42:42.936Z,0
2017-03-18T04:43:23.540Z,0
2017-03-18T04:44:04.138Z,0
2017-03-18T04:44:44.779Z,0
2017-03-18T04:45:25.384Z,0
2017-03-18T04:46:05.951Z,0
2017-03-18T04:46:46.601Z,0
2017-03-18T04:47:27.198Z,0
2017-03-18T04:48:07.778Z,0
2017-03-18T04:48:48.372Z,0
2017-03-18T04:49:28.970Z,0
2017-03-18T04:50:09.611Z,0
2017-03-18T04:50:50.211Z,0
2017-03-18T04:51:30.821Z,0
2017-03-18T04:52:11.393Z,0
2017-03-18T04:52:51.983Z,0
2017-03-18T04:53:32.634Z,0
2017-03-18T04:54:13.185Z,0
2017-03-18T04:54:53.755Z,0
2017-03-18T04:55:34.325Z,0
2017-03-18T04:56:14.933Z,0
2017-03-18T04:56:55.533Z,0
2017-03-18T04:57:36.163Z,4
2017-03-18T04:58:16.770Z,4
2017-03-18T04:58:57.651Z,4
2017-03-18T04:59:39.031Z,4
2017-03-18T05:00:20.436Z,0
2017-03-18T05:01:01.235Z,4
2017-03-18T05:01:41.840Z,4
2017-03-18T05:02:22.437Z,4
2017-03-18T05:03:03.027Z,4
2017-03-18T05:03:43.615Z,0
2017-03-18T05:04:24.222Z,4
2017-03-18T05:05:04.790Z,4
2017-03-18T05:05:45.410Z,4
2017-03-18T05:06:25.960Z,4
2017-03-18T05:07:06.529Z,8
2017-03-18T05:07:47.106Z,4
2017-03-18T05:08:27.714Z,8
2017-03-18T05:09:08.306Z,8
2017-03-18T05:09:48.914Z,8
2017-03-18T05:10:29.553Z,12
2017-03-18T05:11:10.141Z,12
2017-03-18T05:11:50.714Z,16
2017-03-18T05:12:31.323Z,20
2017-03-18T05:13:11.895Z,20
2017-03-18T05:13:52.535Z,20
2017-03-18T05:14:33.150Z,20
2017-03-18T05:15:13.768Z,16
2017-03-18T05:15:54.346Z,16
2017-03-18T05:16:34.931Z,12
2017-03-18T05:17:15.526Z,12
2017-03-18T05:17:56.091Z,16
2017-03-18T05:18:36.689Z,20
2017-03-18T05:19:17.306Z,28
2017-03-18T05:19:57.901Z,28
2017-03-18T05:20:38.495Z,32
2017-03-18T05:21:19.133Z,32
2017-03-18T05:21:59.727Z,32
2017-03-18T05:22:40.333Z,32
2017-03-18T05:23:20.925Z,20
2017-03-18T05:24:01.498Z,20
2017-03-18T05:24:42.081Z,20
2017-03-18T05:25:22.657Z,24
2017-03-18T05:26:03.227Z,28
2017-03-18T05:26:43.840Z,32
2017-03-18T05:27:24.458Z,36
2017-03-18T05:28:05.043Z,40
2017-03-18T05:28:45.635Z,40
2017-03-18T05:29:26.239Z,40
2017-03-18T05:30:06.783Z,36
2017-03-18T05:30:47.350Z,40
2017-03-18T05:31:27.951Z,32
2017-03-18T05:32:08.492Z,32
2017-03-18T05:32:49.081Z,36
2017-03-18T05:33:29.661Z,36
2017-03-18T05:34:10.258Z,48
2017-03-18T05:34:50.909Z,52
2017-03-18T05:35:31.480Z,56
2017-03-18T05:36:12.129Z,56
2017-03-18T05:36:52.673Z,48
2017-03-18T05:37:33.262Z,60
2017-03-18T05:38:13.867Z,64
2017-03-18T05:38:54.475Z,64
2017-03-18T05:39:35.084Z,64
2017-03-18T05:40:15.654Z,64
2017-03-18T05:40:56.320Z,68
2017-03-18T05:41:36.918Z,76
2017-03-18T05:42:17.540Z,76
2017-03-18T05:42:58.103Z,76
2017-03-18T05:43:38.675Z,80
2017-03-18T05:44:19.474Z,76
2017-03-18T05:45:00.135Z,88
2017-03-18T05:45:40.746Z,92
2017-03-18T05:46:21.289Z,80
2017-03-18T05:47:01.894Z,72
2017-03-18T05:47:42.460Z,76
2017-03-18T05:48:23.066Z,80
2017-03-18T05:49:03.644Z,92
2017-03-18T05:49:44.261Z,88
2017-03-18T05:50:24.860Z,84
2017-03-18T05:51:05.474Z,76
2017-03-18T05:51:46.122Z,88
2017-03-18T05:52:26.684Z,104
2017-03-18T05:53:07.264Z,108
2017-03-18T05:53:47.842Z,108
2017-03-18T05:54:28.484Z,104
2017-03-18T05:55:09.140Z,104
2017-03-18T05:55:49.720Z,104
2017-03-18T05:56:30.316Z,104
2017-03-18T05:57:10.927Z,112
2017-03-18T05:57:51.563Z,124
2017-03-18T05:58:32.151Z,120
2017-03-18T05:59:12.723Z,128
2017-03-18T05:59:53.337Z,140
2017-03-18T06:00:33.947Z,144
2017-03-18T06:01:14.540Z,136
2017-03-18T06:01:55.140Z,128
2017-03-18T06:02:35.739Z,132
2017-03-18T06:03:16.311Z,120
2017-03-18T06:03:56.922Z,136
2017-03-18T06:04:37.495Z,136
2017-03-18T06:05:18.310Z,136
2017-03-18T06:05:58.909Z,144
2017-03-18T06:06:39.476Z,144
2017-03-18T06:07:20.057Z,156
2017-03-18T06:08:00.651Z,148
2017-03-18T06:08:41.256Z,168
2017-03-18T06:09:21.847Z,168
2017-03-18T06:10:02.457Z,152
2017-03-18T06:10:43.015Z,120
2017-03-18T06:11:23.593Z,104
2017-03-18T06:12:04.218Z,96
2017-03-18T06:12:44.762Z,96
2017-03-18T06:13:25.345Z,92
2017-03-18T06:14:05.908Z,100
2017-03-18T06:14:46.487Z,104
2017-03-18T06:15:27.059Z,100
2017-03-18T06:16:07.628Z,112
2017-03-18T06:16:48.264Z,112
2017-03-18T06:17:28.923Z,112
2017-03-18T06:18:09.552Z,116
2017-03-18T06:18:50.117Z,116
2017-03-18T06:19:30.705Z,108
2017-03-18T06:20:11.300Z,124
2017-03-18T06:20:51.888Z,132
2017-03-18T06:21:33.349Z,152
2017-03-18T06:22:13.917Z,196
2017-03-18T06:22:54.490Z,212
2017-03-18T06:23:35.085Z,224
2017-03-18T06:24:15.687Z,292
2017-03-18T06:24:56.262Z,228
2017-03-18T06:25:36.857Z,224
2017-03-18T06:26:17.479Z,224
2017-03-18T06:26:58.076Z,196
2017-03-18T06:27:38.651Z,196
2017-03-18T06:28:19.232Z,180
2017-03-18T06:28:59.834Z,188
2017-03-18T06:29:40.490Z,180
2017-03-18T06:30:21.056Z,156
2017-03-18T06:31:01.635Z,156
2017-03-18T06:31:42.238Z,164
2017-03-18T06:32:22.856Z,168
2017-03-18T06:33:03.521Z,196
2017-03-18T06:33:44.107Z,176
2017-03-18T06:34:24.700Z,180
2017-03-18T06:35:05.315Z,180
2017-03-18T06:35:46.084Z,160
2017-03-18T06:36:27.013Z,176
2017-03-18T06:37:07.880Z,208
2017-03-18T06:37:48.456Z,268
2017-03-18T06:38:29.057Z,328
2017-03-18T06:39:09.621Z,328
2017-03-18T06:39:50.256Z,324
2017-03-18T06:40:30.843Z,312
2017-03-18T06:41:11.460Z,344
2017-03-18T06:41:52.031Z,404
2017-03-18T06:42:32.747Z,448
2017-03-18T06:43:13.331Z,520
2017-03-18T06:43:53.964Z,776
2017-03-18T06:44:34.555Z,1064
2017-03-18T06:45:15.143Z,1016
2017-03-18T06:45:55.762Z,636
2017-03-18T06:46:36.358Z,520
2017-03-18T06:47:16.984Z,304
2017-03-18T06:47:57.579Z,160
2017-03-18T06:48:38.150Z,120
2017-03-18T06:49:18.926Z,136
2017-03-18T06:49:59.511Z,200
2017-03-18T06:50:40.076Z,272
2017-03-18T06:51:20.647Z,304
2017-03-18T06:52:01.318Z,400
2017-03-18T06:52:41.940Z,336
2017-03-18T06:53:22.520Z,340
2017-03-18T06:54:03.151Z,316
2017-03-18T06:54:43.762Z,384
2017-03-18T06:55:24.362Z,456
2017-03-18T06:56:04.939Z,472
2017-03-18T06:56:45.527Z,492
2017-03-18T06:57:26.140Z,480
2017-03-18T06:58:06.760Z,592
2017-03-18T06:58:47.369Z,628
2017-03-18T06:59:27.954Z,648
2017-03-18T07:00:08.525Z,544
2017-03-18T07:00:49.134Z,476
2017-03-18T07:01:29.784Z,456
2017-03-18T07:02:10.344Z,444
2017-03-18T07:02:50.940Z,444
2017-03-18T07:03:31.529Z,484
2017-03-18T07:04:12.113Z,392
2017-03-18T07:04:52.716Z,340
2017-03-18T07:05:33.311Z,332
2017-03-18T07:06:13.910Z,352
2017-03-18T07:06:54.546Z,352
2017-03-18T07:07:35.133Z,396
2017-03-18T07:08:15.717Z,440
2017-03-18T07:08:56.317Z,492
2017-03-18T07:09:36.918Z,528
2017-03-18T07:10:17.490Z,632
2017-03-18T07:10:58.119Z,628
2017-03-18T07:11:38.687Z,600
2017-03-18T07:12:19.343Z,436
2017-03-18T07:12:59.982Z,432
2017-03-18T07:13:40.559Z,360
2017-03-18T07:14:21.181Z,360
2017-03-18T07:15:01.993Z,472
2017-03-18T07:15:42.587Z,456
2017-03-18T07:16:23.241Z,316
2017-03-18T07:17:03.784Z,304
2017-03-18T07:17:44.359Z,280
2017-03-18T07:18:24.985Z,304
2017-03-18T07:19:05.594Z,268
2017-03-18T07:19:46.178Z,328
2017-03-18T07:20:26.794Z,336
2017-03-18T07:21:07.412Z,372
2017-03-18T07:21:48.039Z,376
2017-03-18T07:22:28.646Z,364
2017-03-18T07:23:09.333Z,348
2017-03-18T07:23:49.936Z,352
2017-03-18T07:24:30.581Z,356
2017-03-18T07:25:11.392Z,304
2017-03-18T07:25:51.979Z,316
2017-03-18T07:26:32.564Z,408
2017-03-18T07:27:13.172Z,456
2017-03-18T07:27:54.170Z,348
2017-03-18T07:28:34.746Z,328
2017-03-18T07:29:15.499Z,348
2017-03-18T07:29:56.108Z,332
2017-03-18T07:30:36.765Z,336
2017-03-18T07:31:17.389Z,352
2017-03-18T07:31:58.012Z,268
2017-03-18T07:32:38.637Z,264
2017-03-18T07:33:19.344Z,268
2017-03-18T07:34:00.531Z,308
2017-03-18T07:34:41.294Z,356
2017-03-18T07:35:22.150Z,472
2017-03-18T07:36:03.666Z,688
2017-03-18T07:36:44.385Z,928
2017-03-18T07:37:25.843Z,1220
2017-03-18T07:38:07.554Z,772
2017-03-18T07:38:48.155Z,832
2017-03-18T07:39:28.802Z,860
2017-03-18T07:40:09.417Z,744
2017-03-18T07:40:50.003Z,776
2017-03-18T07:41:30.615Z,716
2017-03-18T07:42:11.219Z,732
2017-03-18T07:42:51.807Z,688
2017-03-18T07:43:32.400Z,720
2017-03-18T07:44:12.991Z,624
2017-03-18T07:44:53.592Z,632
2017-03-18T07:45:34.187Z,648
2017-03-18T07:46:14.776Z,656
2017-03-18T07:46:55.364Z,764
2017-03-18T07:47:35.968Z,676
2017-03-18T07:48:16.594Z,600
2017-03-18T07:48:57.204Z,644
2017-03-18T07:49:37.774Z,692
2017-03-18T07:50:18.387Z,720
2017-03-18T07:50:58.997Z,544
2017-03-18T07:51:39.569Z,680
2017-03-18T07:52:20.133Z,752
2017-03-18T07:53:00.723Z,888
2017-03-18T07:53:41.349Z,1032
2017-03-18T07:54:21.918Z,1204
2017-03-18T07:55:02.504Z,936
2017-03-18T07:55:43.076Z,944
2017-03-18T07:56:23.705Z,804
2017-03-18T07:57:04.281Z,796
2017-03-18T07:57:44.885Z,888
2017-03-18T07:58:25.487Z,916
2017-03-18T07:59:06.054Z,896
2017-03-18T07:59:46.640Z,876
2017-03-18T08:00:27.221Z,832
2017-03-18T08:01:07.920Z,620
2017-03-18T08:01:48.444Z,548
2017-03-18T08:02:29.050Z,684
2017-03-18T08:03:09.682Z,980
2017-03-18T08:03:50.300Z,1076
2017-03-18T08:04:30.901Z,1048
2017-03-18T08:05:11.527Z,1100
2017-03-18T08:05:52.145Z,1064
2017-03-18T08:06:32.731Z,1544
2017-03-18T08:07:13.325Z,1672
2017-03-18T08:07:53.898Z,1884
2017-03-18T08:08:34.476Z,1912
2017-03-18T08:09:15.051Z,1672
2017-03-18T08:09:55.689Z,988
2017-03-18T08:10:36.272Z,968
2017-03-18T08:11:16.900Z,944
2017-03-18T08:11:57.457Z,924
2017-03-18T08:12:38.064Z,820
2017-03-18T08:13:18.675Z,864
2017-03-18T08:13:59.270Z,952
2017-03-18T08:14:39.895Z,1080
2017-03-18T08:15:20.482Z,1028
2017-03-18T08:16:01.047Z,1240
2017-03-18T08:16:41.645Z,1356
2017-03-18T08:17:22.225Z,1680
2017-03-18T08:18:02.826Z,1412
2017-03-18T08:18:43.419Z,1252
2017-03-18T08:19:24.099Z,1728
2017-03-18T08:20:04.703Z,1588
2017-03-18T08:20:45.302Z,2496
2017-03-18T08:21:25.883Z,2308
2017-03-18T08:22:06.485Z,1332
2017-03-18T08:22:47.091Z,1216
2017-03-18T08:23:27.679Z,1464
2017-03-18T08:24:13.399Z,2132
2017-03-18T08:25:07.989Z,1708
2017-03-18T08:25:49.532Z,1584
2017-03-18T08:26:30.105Z,1112
2017-03-18T08:27:10.750Z,924
2017-03-18T08:27:51.316Z,876
2017-03-18T08:28:33.080Z,904
2017-03-18T08:29:13.667Z,1048
2017-03-18T08:29:54.254Z,1172
2017-03-18T08:30:35.392Z,1228
2017-03-18T08:31:16.596Z,1416
2017-03-18T08:31:57.449Z,1576
2017-03-18T08:32:38.036Z,1928
2017-03-18T08:33:19.308Z,1636
2017-03-18T08:34:00.705Z,1340
2017-03-18T08:34:41.294Z,1560
2017-03-18T08:35:21.884Z,2048
2017-03-18T08:36:02.503Z,4108
2017-03-18T08:36:43.126Z,3520
2017-03-18T08:37:23.710Z,4292
2017-03-18T08:38:04.338Z,4080
2017-03-18T08:38:45.152Z,2388
2017-03-18T08:39:25.756Z,2360
2017-03-18T08:40:06.376Z,2288
2017-03-18T08:40:47.019Z,2632
2017-03-18T08:41:27.687Z,1688
2017-03-18T08:42:08.357Z,1292
2017-03-18T08:42:48.975Z,1344
2017-03-18T08:43:29.549Z,1508
2017-03-18T08:44:10.196Z,1428
2017-03-18T08:44:50.837Z,1700
2017-03-18T08:45:31.408Z,2060
2017-03-18T08:46:12.025Z,1600
2017-03-18T08:46:52.597Z,1476
2017-03-18T08:47:33.201Z,1632
2017-03-18T08:48:13.816Z,1876
2017-03-18T08:48:54.454Z,1556
2017-03-18T08:49:35.119Z,1168
2017-03-18T08:50:15.762Z,1600
2017-03-18T08:50:56.357Z,2076
2017-03-18T08:51:36.955Z,2092
2017-03-18T08:52:17.583Z,2736
2017-03-18T08:52:58.186Z,4380
2017-03-18T08:53:38.803Z,4184
2017-03-18T08:54:19.457Z,4544
2017-03-18T08:55:02.974Z,3572
2017-03-18T08:55:43.629Z,2300
2017-03-18T08:56:24.701Z,2128
2017-03-18T08:57:05.612Z,2056
2017-03-18T08:57:46.310Z,1668
2017-03-18T08:58:26.949Z,1556
2017-03-18T08:59:07.546Z,2216
2017-03-18T08:59:48.195Z,1860
2017-03-18T09:00:28.815Z,1916
2017-03-18T09:01:09.446Z,2048
2017-03-18T09:01:50.048Z,1624
2017-03-18T09:02:30.647Z,1304
2017-03-18T09:03:11.696Z,1176
2017-03-18T09:03:52.281Z,1128
2017-03-18T09:04:32.958Z,1408
2017-03-18T09:05:13.564Z,1636
2017-03-18T09:05:54.148Z,1276
2017-03-18T09:06:34.924Z,992
2017-03-18T09:07:15.564Z,840
2017-03-18T09:07:56.256Z,812
2017-03-18T09:08:36.861Z,912
2017-03-18T09:09:17.496Z,1192
2017-03-18T09:09:58.102Z,1664
2017-03-18T09:10:38.752Z,2152
2017-03-18T09:11:19.402Z,2772
2017-03-18T09:11:59.985Z,2608
2017-03-18T09:12:40.667Z,2136
2017-03-18T09:13:21.243Z,2104
2017-03-18T09:14:01.867Z,2768
2017-03-18T09:14:42.495Z,3704
2017-03-18T09:15:23.122Z,4284
2017-03-18T09:16:03.758Z,4976
2017-03-18T09:16:44.444Z,3400
2017-03-18T09:17:25.042Z,2540
2017-03-18T09:18:05.652Z,1520
2017-03-18T09:18:46.262Z,1328
2017-03-18T09:19:26.969Z,1464
2017-03-18T09:20:07.709Z,1464
2017-03-18T09:20:48.351Z,1136
2017-03-18T09:21:28.985Z,1080
2017-03-18T09:22:09.595Z,1340
2017-03-18T09:22:50.347Z,1972
2017-03-18T09:23:30.942Z,3276
2017-03-18T09:24:11.548Z,2880
2017-03-18T09:24:52.181Z,2124
2017-03-18T09:25:32.787Z,2388
2017-03-18T09:26:13.418Z,2768
2017-03-18T09:26:54.025Z,2664
2017-03-18T09:27:34.614Z,3132
2017-03-18T09:28:15.243Z,3576
2017-03-18T09:28:55.827Z,2916
2017-03-18T09:29:36.414Z,2184
2017-03-18T09:30:17.089Z,1844
2017-03-18T09:30:57.802Z,1672
2017-03-18T09:31:38.334Z,1532
2017-03-18T09:32:19.023Z,1612
2017-03-18T09:32:59.623Z,2252
2017-03-18T09:33:40.240Z,1852
2017-03-18T09:34:20.871Z,1820
2017-03-18T09:35:01.793Z,1936
2017-03-18T09:35:42.645Z,2736
2017-03-18T09:36:23.252Z,2596
2017-03-18T09:37:03.840Z,2104
2017-03-18T09:37:44.452Z,1468
2017-03-18T09:38:25.099Z,1480
2017-03-18T09:39:09.657Z,1184
2017-03-18T09:39:49.217Z,944